createdAt,value
2022-11-05T09:08:19.284Z,13.25
2022-11-05T09:39:51.114Z,3.33
2022-11-05T09:45:44.472Z,2.80
2022-11-05T09:51:37.407Z,1.85
2022-11-05T09:57:42.005Z,3.45
2022-11-05T10:03:34.650Z,8.53
2022-11-05T10:09:30.258Z,6.57
2022-11-05T10:15:26.462Z,9.63
2022-11-05T10:21:37.687Z,12.73
2022-11-05T10:27:32.179Z,2.35
2022-11-05T10:39:19.357Z,1.45
2022-11-05T10:45:18.391Z,5.05
2022-11-05T10:51:11.550Z,3.40
2022-11-05T10:57:24.212Z,4.85
2022-11-05T11:03:34.672Z,3.80
2022-11-05T11:09:32.037Z,2.35
2022-11-05T11:15:27.513Z,2.83
2022-11-05T11:21:23.342Z,4.35
2022-11-05T11:27:28.912Z,2.53
2022-11-05T11:33:22.959Z,3.45
2022-11-05T11:39:25.972Z,2.92
2022-11-05T11:45:28.088Z,2.13
2022-11-05T11:51:32.665Z,5.00
2022-11-05T11:57:26.814Z,7.22
2022-11-05T12:09:27.271Z,7.35
2022-11-05T12:15:31.430Z,6.18
2022-11-05T12:21:51.302Z,3.33
2022-11-05T12:27:51.240Z,4.55
2022-11-05T12:33:46.338Z,2.10
2022-11-05T12:39:49.628Z,3.42
2022-11-05T12:45:54.379Z,3.23
2022-11-05T12:52:07.898Z,3.50
2022-11-05T12:58:12.659Z,5.17
2022-11-05T13:04:11.275Z,3.70
2022-11-05T13:10:10.922Z,5.00
2022-11-05T13:16:10.356Z,12.18
2022-11-05T13:22:35.078Z,3.28
2022-11-05T13:36:26.030Z,21.98
2022-11-05T13:42:33.532Z,0.85
2022-11-05T13:48:49.978Z,3.03
2022-11-05T13:55:08.699Z,6.68
2022-11-05T14:01:18.467Z,4.68
2022-11-05T14:07:20.949Z,2.40
2022-11-05T14:13:37.717Z,4.30
2022-11-05T14:20:00.009Z,3.90
2022-11-05T14:26:36.855Z,8.93
2022-11-05T14:32:45.939Z,3.90
2022-11-05T14:38:47.359Z,8.48
2022-11-05T14:45:00.137Z,2.15
2022-11-05T14:50:53.209Z,5.83
2022-11-05T14:56:56.379Z,3.15
2022-11-05T15:03:05.641Z,8.70
2022-11-05T15:09:00.149Z,12.15
2022-11-05T15:15:01.538Z,4.80
2022-11-05T15:20:57.362Z,8.75
2022-11-05T15:26:58.892Z,2.63
2022-11-05T15:32:52.601Z,7.50
2022-11-05T15:39:08.113Z,10.32
2022-11-05T15:45:00.307Z,7.38
2022-11-05T15:50:53.236Z,4.40
2022-11-05T15:57:00.169Z,10.55
2022-11-05T16:02:57.890Z,16.70
2022-11-05T16:08:51.023Z,8.02
2022-11-05T16:15:00.893Z,12.07
2022-11-05T16:21:08.435Z,15.02
2022-11-05T16:27:19.384Z,10.52
2022-11-05T16:33:14.043Z,32.30
2022-11-05T16:39:07.088Z,20.05
2022-11-05T16:45:00.088Z,14.47
2022-11-05T16:50:53.671Z,15.83
2022-11-05T16:56:47.627Z,17.27
2022-11-05T17:02:40.517Z,15.13
2022-11-05T17:08:33.340Z,19.20
2022-11-05T17:14:26.040Z,22.77
2022-11-05T17:20:31.443Z,15.15
2022-11-05T17:26:26.259Z,20.92
2022-11-05T17:38:12.414Z,16.08
2022-11-05T17:44:05.678Z,19.25
2022-11-05T17:49:57.699Z,19.83
2022-11-05T17:55:50.730Z,22.45
2022-11-05T18:07:42.663Z,24.50
2022-11-05T18:13:37.269Z,17.05
2022-11-05T18:19:31.076Z,20.58
2022-11-05T18:25:23.238Z,28.63
2022-11-05T18:31:23.537Z,17.17
2022-11-05T18:37:17.931Z,19.08
2022-11-05T18:43:13.591Z,21.88
2022-11-05T18:49:16.261Z,21.75
2022-11-05T18:55:10.539Z,17.02
2022-11-05T19:01:12.481Z,14.93
2022-11-05T19:07:09.350Z,14.70
2022-11-05T19:13:02.848Z,16.70
2022-11-05T19:18:59.642Z,20.73
2022-11-05T19:24:52.778Z,18.45
2022-11-05T19:30:45.689Z,15.82
2022-11-05T19:36:38.488Z,24.13
2022-11-05T19:42:31.652Z,22.13
2022-11-05T19:48:25.300Z,28.73
2022-11-05T19:54:17.626Z,19.73
2022-11-05T20:00:11.080Z,23.13
2022-11-05T20:06:12.635Z,20.23
2022-11-05T20:12:06.670Z,25.73
2022-11-05T20:18:00.190Z,30.05
2022-11-05T20:23:55.607Z,45.23
2022-11-05T20:29:51.605Z,39.47
2022-11-05T20:35:45.265Z,43.38
2022-11-05T20:47:30.379Z,33.38
2022-11-05T20:53:22.799Z,31.63
2022-11-05T20:59:17.574Z,32.30
2022-11-05T21:05:10.779Z,22.83
2022-11-05T21:11:04.730Z,20.17
2022-11-05T21:16:57.998Z,22.63
2022-11-05T21:22:51.365Z,14.53
2022-11-05T21:28:44.020Z,23.15
2022-11-05T21:34:36.963Z,17.70
2022-11-05T21:40:33.729Z,24.95
2022-11-05T21:46:26.858Z,17.65
2022-11-05T21:52:38.179Z,22.43
2022-11-05T21:58:50.113Z,15.90
2022-11-05T22:04:48.910Z,14.23
2022-11-05T22:10:41.998Z,16.50
2022-11-05T22:16:35.139Z,25.33
2022-11-05T22:22:29.617Z,12.27
2022-11-05T22:28:24.976Z,23.13
2022-11-05T22:34:18.230Z,33.65
2022-11-05T22:40:11.334Z,27.07
2022-11-05T22:46:07.820Z,30.35
2022-11-05T22:52:02.064Z,19.98
2022-11-05T22:57:58.530Z,23.55
2022-11-05T23:03:54.101Z,28.33
2022-11-05T23:10:05.749Z,27.95
2022-11-05T23:16:17.368Z,20.85
2022-11-05T23:22:31.825Z,24.33
2022-11-05T23:28:24.266Z,27.88
2022-11-05T23:34:17.069Z,36.05
2022-11-05T23:40:13.969Z,27.10
2022-11-05T23:46:24.525Z,24.85
2022-11-05T23:52:17.208Z,20.25
2022-11-05T23:58:11.740Z,15.88
